sensor_id;sensor_type;location;lat;lon;timestamp;pressure;altitude;pressure_sealevel;temperature;humidity
61757;BME280;57225;61.460;24.060;2023-02-15T00:00:39;101261.03;;;-1.20;100.00
61757;BME280;57225;61.460;24.060;2023-02-15T00:03:25;101263.78;;;-1.20;100.00
61757;BME280;57225;61.460;24.060;2023-02-15T00:06:09;101254.50;;;-1.25;100.00
61757;BME280;57225;61.460;24.060;2023-02-15T00:08:54;101261.75;;;-1.15;100.00
61757;BME280;57225;61.460;24.060;2023-02-15T00:11:39;101251.13;;;-1.16;100.00
61757;BME280;57225;61.460;24.060;2023-02-15T00:14:24;101253.84;;;-1.16;100.00
61757;BME280;57225;61.460;24.060;2023-02-15T00:17:08;101257.16;;;-1.19;100.00
61757;BME280;57225;61.460;24.060;2023-02-15T00:19:52;101257.09;;;-1.14;100.00
61757;BME280;57225;61.460;24.060;2023-02-15T00:22:37;101263.06;;;-1.12;100.00
61757;BME280;57225;61.460;24.060;2023-02-15T00:25:22;101258.59;;;-1.22;100.00
61757;BME280;57225;61.460;24.060;2023-02-15T00:28:06;101255.19;;;-1.14;100.00
61757;BME280;57225;61.460;24.060;2023-02-15T00:30:51;101259.16;;;-1.06;100.00
61757;BME280;57225;61.460;24.060;2023-02-15T00:33:36;101259.91;;;-1.19;100.00
61757;BME280;57225;61.460;24.060;2023-02-15T00:36:21;101262.63;;;-1.19;100.00
61757;BME280;57225;61.460;24.060;2023-02-15T00:39:06;101253.69;;;-1.25;100.00
61757;BME280;57225;61.460;24.060;2023-02-15T00:41:50;101253.94;;;-1.22;100.00
61757;BME280;57225;61.460;24.060;2023-02-15T00:44:34;101252.06;;;-1.26;100.00
61757;BME280;57225;61.460;24.060;2023-02-15T00:47:19;101250.66;;;-1.24;100.00
61757;BME280;57225;61.460;24.060;2023-02-15T00:50:04;101247.13;;;-1.24;100.00
61757;BME280;57225;61.460;24.060;2023-02-15T00:52:49;101237.00;;;-1.24;100.00
61757;BME280;57225;61.460;24.060;2023-02-15T00:55:33;101237.00;;;-1.24;100.00
61757;BME280;57225;61.460;24.060;2023-02-15T00:58:18;101231.00;;;-1.26;100.00
61757;BME280;57225;61.460;24.060;2023-02-15T01:01:08;101242.75;;;-1.25;100.00
61757;BME280;57225;61.460;24.060;2023-02-15T01:03:53;101238.09;;;-1.25;100.00
61757;BME280;57225;61.460;24.060;2023-02-15T01:06:37;101238.63;;;-1.23;100.00
61757;BME280;57225;61.460;24.060;2023-02-15T01:09:21;101247.84;;;-1.18;100.00
61757;BME280;57225;61.460;24.060;2023-02-15T01:12:06;101238.53;;;-1.17;100.00
61757;BME280;57225;61.460;24.060;2023-02-15T01:14:50;101234.78;;;-1.22;100.00
61757;BME280;57225;61.460;24.060;2023-02-15T01:17:35;101230.19;;;-1.26;100.00
61757;BME280;57225;61.460;24.060;2023-02-15T01:20:21;101245.19;;;-1.24;100.00
61757;BME280;57225;61.460;24.060;2023-02-15T01:23:07;101231.44;;;-1.18;100.00
61757;BME280;57225;61.460;24.060;2023-02-15T01:25:52;101236.19;;;-1.24;100.00
61757;BME280;57225;61.460;24.060;2023-02-15T01:28:37;101237.00;;;-1.24;100.00
61757;BME280;57225;61.460;24.060;2023-02-15T01:31:22;101224.44;;;-1.25;100.00
61757;BME280;57225;61.460;24.060;2023-02-15T01:34:06;101224.13;;;-1.23;100.00
61757;BME280;57225;61.460;24.060;2023-02-15T01:36:50;101222.50;;;-1.24;100.00
61757;BME280;57225;61.460;24.060;2023-02-15T01:39:35;101226.59;;;-1.22;100.00
61757;BME280;57225;61.460;24.060;2023-02-15T01:42:24;101216.84;;;-1.28;100.00
61757;BME280;57225;61.460;24.060;2023-02-15T01:45:18;101217.13;;;-1.29;100.00
61757;BME280;57225;61.460;24.060;2023-02-15T01:51:00;101209.22;;;-1.31;100.00
61757;BME280;57225;61.460;24.060;2023-02-15T01:53:54;101186.44;;;-1.45;100.00
61757;BME280;57225;61.460;24.060;2023-02-15T01:56:40;101203.75;;;-1.31;100.00
61757;BME280;57225;61.460;24.060;2023-02-15T01:59:25;101206.47;;;-1.31;100.00
61757;BME280;57225;61.460;24.060;2023-02-15T02:02:12;101196.34;;;-1.30;100.00
61757;BME280;57225;61.460;24.060;2023-02-15T02:05:02;101186.97;;;-1.43;100.00
61757;BME280;57225;61.460;24.060;2023-02-15T02:07:52;101199.75;;;-1.38;100.00
61757;BME280;57225;61.460;24.060;2023-02-15T02:10:38;101195.09;;;-1.38;100.00
61757;BME280;57225;61.460;24.060;2023-02-15T02:13:23;101192.38;;;-1.38;100.00
61757;BME280;57225;61.460;24.060;2023-02-15T02:16:20;101188.53;;;-1.37;100.00
61757;BME280;57225;61.460;24.060;2023-02-15T02:25:30;101186.59;;;-1.36;100.00
61757;BME280;57225;61.460;24.060;2023-02-15T02:28:45;101181.75;;;-1.39;100.00
61757;BME280;57225;61.460;24.060;2023-02-15T02:35:05;101172.13;;;-1.37;100.00
61757;BME280;57225;61.460;24.060;2023-02-15T02:41:08;101174.31;;;-1.39;100.00
61757;BME280;57225;61.460;24.060;2023-02-15T02:44:10;101182.53;;;-1.39;100.00
61757;BME280;57225;61.460;24.060;2023-02-15T02:47:09;101173.56;;;-1.26;100.00
61757;BME280;57225;61.460;24.060;2023-02-15T02:50:04;101172.84;;;-1.31;100.00
61757;BME280;57225;61.460;24.060;2023-02-15T02:52:51;101182.25;;;-1.37;100.00
61757;BME280;57225;61.460;24.060;2023-02-15T02:56:02;101179.78;;;-1.39;100.00
61757;BME280;57225;61.460;24.060;2023-02-15T02:59:00;101179.31;;;-1.41;100.00
61757;BME280;57225;61.460;24.060;2023-02-15T03:02:01;101174.66;;;-1.40;100.00
61757;BME280;57225;61.460;24.060;2023-02-15T03:04:50;101169.47;;;-1.42;100.00
61757;BME280;57225;61.460;24.060;2023-02-15T03:07:42;101173.84;;;-1.41;100.00
61757;BME280;57225;61.460;24.060;2023-02-15T03:10:31;101179.31;;;-1.41;100.00
61757;BME280;57225;61.460;24.060;2023-02-15T03:13:16;101177.06;;;-1.39;100.00
61757;BME280;57225;61.460;24.060;2023-02-15T03:16:05;101162.91;;;-1.41;100.00
61757;BME280;57225;61.460;24.060;2023-02-15T03:19:30;101166.66;;;-1.37;100.00
61757;BME280;57225;61.460;24.060;2023-02-15T03:22:22;101167.59;;;-1.28;100.00
61757;BME280;57225;61.460;24.060;2023-02-15T03:25:25;101164.94;;;-1.33;100.00
61757;BME280;57225;61.460;24.060;2023-02-15T03:28:15;101168.00;;;-1.34;100.00
61757;BME280;57225;61.460;24.060;2023-02-15T03:31:07;101156.63;;;-1.41;100.00
61757;BME280;57225;61.460;24.060;2023-02-15T03:34:06;101164.00;;;-1.42;100.00
61757;BME280;57225;61.460;24.060;2023-02-15T03:37:13;101165.34;;;-1.39;100.00
61757;BME280;57225;61.460;24.060;2023-02-15T03:43:44;101152.41;;;-1.34;100.00
61757;BME280;57225;61.460;24.060;2023-02-15T03:46:42;101128.09;;;-1.54;100.00
61757;BME280;57225;61.460;24.060;2023-02-15T03:52:32;101156.91;;;-1.43;100.00
61757;BME280;57225;61.460;24.060;2023-02-15T03:55:18;101152.53;;;-1.44;100.00
61757;BME280;57225;61.460;24.060;2023-02-15T03:58:03;101153.88;;;-1.41;100.00
61757;BME280;57225;61.460;24.060;2023-02-15T04:01:27;101153.06;;;-1.42;100.00
61757;BME280;57225;61.460;24.060;2023-02-15T04:04:37;101147.16;;;-1.49;100.00
61757;BME280;57225;61.460;24.060;2023-02-15T04:07:21;101152.09;;;-1.51;100.00
61757;BME280;57225;61.460;24.060;2023-02-15T04:10:06;101144.22;;;-1.52;100.00
61757;BME280;57225;61.460;24.060;2023-02-15T04:13:09;101149.06;;;-1.49;100.00
61757;BME280;57225;61.460;24.060;2023-02-15T04:15:54;101145.63;;;-1.55;100.00
61757;BME280;57225;61.460;24.060;2023-02-15T04:18:47;101145.81;;;-1.51;100.00
61757;BME280;57225;61.460;24.060;2023-02-15T04:21:50;101139.78;;;-1.48;100.00
61757;BME280;57225;61.460;24.060;2023-02-15T04:24:53;101139.34;;;-1.55;100.00
61757;BME280;57225;61.460;24.060;2023-02-15T04:27:56;101139.13;;;-1.59;100.00
61757;BME280;57225;61.460;24.060;2023-02-15T04:30:40;101143.47;;;-1.58;100.00
61757;BME280;57225;61.460;24.060;2023-02-15T04:33:25;101141.03;;;-1.59;100.00
61757;BME280;57225;61.460;24.060;2023-02-15T04:36:09;101139.19;;;-1.64;100.00
61757;BME280;57225;61.460;24.060;2023-02-15T04:38:55;101136.41;;;-1.59;100.00
61757;BME280;57225;61.460;24.060;2023-02-15T04:41:39;101137.88;;;-1.67;100.00
61757;BME280;57225;61.460;24.060;2023-02-15T04:44:24;101140.97;;;-1.73;100.00
61757;BME280;57225;61.460;24.060;2023-02-15T04:47:08;101142.88;;;-1.74;100.00
61757;BME280;57225;61.460;24.060;2023-02-15T04:49:53;101139.34;;;-1.93;100.00
61757;BME280;57225;61.460;24.060;2023-02-15T04:52:37;101140.53;;;-1.99;100.00
61757;BME280;57225;61.460;24.060;2023-02-15T04:55:22;101128.88;;;-1.86;100.00
61757;BME280;57225;61.460;24.060;2023-02-15T04:58:06;101138.59;;;-1.80;100.00
61757;BME280;57225;61.460;24.060;2023-02-15T05:00:56;101138.53;;;-1.75;100.00
61757;BME280;57225;61.460;24.060;2023-02-15T05:03:40;101132.84;;;-1.78;100.00
61757;BME280;57225;61.460;24.060;2023-02-15T05:06:25;101138.16;;;-1.68;100.00
61757;BME280;57225;61.460;24.060;2023-02-15T05:09:11;101130.97;;;-1.64;100.00
61757;BME280;57225;61.460;24.060;2023-02-15T05:11:55;101135.22;;;-1.72;100.00
61757;BME280;57225;61.460;24.060;2023-02-15T05:14:39;101136.81;;;-1.71;100.00
61757;BME280;57225;61.460;24.060;2023-02-15T05:17:24;101135.34;;;-1.82;100.00
61757;BME280;57225;61.460;24.060;2023-02-15T05:20:08;101126.94;;;-1.85;100.00
61757;BME280;57225;61.460;24.060;2023-02-15T05:22:53;101128.06;;;-1.86;100.00
61757;BME280;57225;61.460;24.060;2023-02-15T05:25:38;101118.22;;;-1.87;100.00
61757;BME280;57225;61.460;24.060;2023-02-15T05:28:42;101126.72;;;-1.89;100.00
61757;BME280;57225;61.460;24.060;2023-02-15T05:31:26;101120.16;;;-1.88;100.00
61757;BME280;57225;61.460;24.060;2023-02-15T05:34:11;101113.38;;;-1.90;100.00
61757;BME280;57225;61.460;24.060;2023-02-15T05:36:55;101118.31;;;-1.92;100.00
61757;BME280;57225;61.460;24.060;2023-02-15T05:39:40;101109.00;;;-1.91;100.00
61757;BME280;57225;61.460;24.060;2023-02-15T05:42:24;101102.19;;;-1.94;100.00
61757;BME280;57225;61.460;24.060;2023-02-15T05:45:09;101109.28;;;-1.93;100.00
61757;BME280;57225;61.460;24.060;2023-02-15T05:47:54;101102.06;;;-2.03;100.00
61757;BME280;57225;61.460;24.060;2023-02-15T05:50:39;101112.47;;;-2.05;100.00
61757;BME280;57225;61.460;24.060;2023-02-15T05:53:23;101104.56;;;-2.06;100.00
61757;BME280;57225;61.460;24.060;2023-02-15T05:56:09;101114.84;;;-1.98;100.00
61757;BME280;57225;61.460;24.060;2023-02-15T05:58:54;101114.59;;;-2.02;100.00
61757;BME280;57225;61.460;24.060;2023-02-15T06:01:39;101112.41;;;-1.99;100.00
61757;BME280;57225;61.460;24.060;2023-02-15T06:04:23;101102.81;;;-1.97;100.00
61757;BME280;57225;61.460;24.060;2023-02-15T06:07:08;101104.72;;;-1.97;100.00
61757;BME280;57225;61.460;24.060;2023-02-15T06:09:52;101100.44;;;-2.04;100.00
61757;BME280;57225;61.460;24.060;2023-02-15T06:12:37;101084.25;;;-2.19;100.00
61757;BME280;57225;61.460;24.060;2023-02-15T06:15:21;101108.41;;;-2.07;100.00
61757;BME280;57225;61.460;24.060;2023-02-15T06:18:06;101103.47;;;-2.05;100.00
61757;BME280;57225;61.460;24.060;2023-02-15T06:20:50;101105.09;;;-2.04;100.00
61757;BME280;57225;61.460;24.060;2023-02-15T06:23:34;101105.66;;;-2.07;100.00
61757;BME280;57225;61.460;24.060;2023-02-15T06:26:18;101103.22;;;-2.09;100.00
61757;BME280;57225;61.460;24.060;2023-02-15T06:29:03;101102.66;;;-2.06;100.00
61757;BME280;57225;61.460;24.060;2023-02-15T06:31:47;101096.97;;;-2.09;100.00
61757;BME280;57225;61.460;24.060;2023-02-15T06:34:32;101088.47;;;-2.08;100.00
61757;BME280;57225;61.460;24.060;2023-02-15T06:56:07;101082.56;;;-2.15;100.00
61757;BME280;57225;61.460;24.060;2023-02-15T06:58:52;101086.34;;;-2.11;100.00
61757;BME280;57225;61.460;24.060;2023-02-15T07:01:37;101078.72;;;-2.14;100.00
61757;BME280;57225;61.460;24.060;2023-02-15T07:04:22;101086.25;;;-2.06;100.00
61757;BME280;57225;61.460;24.060;2023-02-15T07:07:10;101078.16;;;-2.11;100.00
61757;BME280;57225;61.460;24.060;2023-02-15T07:09:55;101076.97;;;-2.05;100.00
61757;BME280;57225;61.460;24.060;2023-02-15T07:12:39;101080.63;;;-1.95;100.00
61757;BME280;57225;61.460;24.060;2023-02-15T07:15:28;101082.44;;;-2.05;100.00
61757;BME280;57225;61.460;24.060;2023-02-15T07:18:12;101082.44;;;-2.05;100.00
61757;BME280;57225;61.460;24.060;2023-02-15T07:20:57;101077.25;;;-2.06;100.00
61757;BME280;57225;61.460;24.060;2023-02-15T07:23:42;101070.69;;;-2.05;100.00
61757;BME280;57225;61.460;24.060;2023-02-15T07:26:26;101075.50;;;-1.97;100.00
61757;BME280;57225;61.460;24.060;2023-02-15T07:29:11;101081.25;;;-1.98;100.00
61757;BME280;57225;61.460;24.060;2023-02-15T07:31:55;101082.28;;;-1.94;100.00
61757;BME280;57225;61.460;24.060;2023-02-15T07:34:40;101085.97;;;-1.85;100.00
61757;BME280;57225;61.460;24.060;2023-02-15T07:37:25;101076.81;;;-1.94;100.00
61757;BME280;57225;61.460;24.060;2023-02-15T07:40:10;101085.31;;;-1.77;100.00
61757;BME280;57225;61.460;24.060;2023-02-15T07:42:57;101076.69;;;-1.71;100.00
61757;BME280;57225;61.460;24.060;2023-02-15T07:45:43;101082.41;;;-1.67;100.00
61757;BME280;57225;61.460;24.060;2023-02-15T07:48:27;101073.69;;;-1.69;100.00
61757;BME280;57225;61.460;24.060;2023-02-15T07:51:12;101072.03;;;-1.70;100.00
61757;BME280;57225;61.460;24.060;2023-02-15T07:53:58;101073.19;;;-1.71;100.00
61757;BME280;57225;61.460;24.060;2023-02-15T07:56:42;101080.19;;;-1.65;100.00
61757;BME280;57225;61.460;24.060;2023-02-15T07:59:27;101073.69;;;-1.69;100.00
61757;BME280;57225;61.460;24.060;2023-02-15T08:02:11;101073.09;;;-1.66;100.00
61757;BME280;57225;61.460;24.060;2023-02-15T08:04:56;101075.22;;;-1.63;100.00
61757;BME280;57225;61.460;24.060;2023-02-15T08:07:40;101077.75;;;-1.67;100.00
61757;BME280;57225;61.460;24.060;2023-02-15T08:10:24;101072.56;;;-1.68;100.00
61757;BME280;57225;61.460;24.060;2023-02-15T08:13:28;101077.28;;;-1.55;100.00
61757;BME280;57225;61.460;24.060;2023-02-15T08:16:13;101075.44;;;-1.59;100.00
61757;BME280;57225;61.460;24.060;2023-02-15T08:18:59;101076.75;;;-1.57;100.00
61757;BME280;57225;61.460;24.060;2023-02-15T08:21:49;101078.63;;;-1.52;100.00
61757;BME280;57225;61.460;24.060;2023-02-15T08:24:37;101065.81;;;-1.57;100.00
61757;BME280;57225;61.460;24.060;2023-02-15T08:27:21;101068.56;;;-1.57;100.00
61757;BME280;57225;61.460;24.060;2023-02-15T08:30:10;101065.00;;;-1.57;100.00
61757;BME280;57225;61.460;24.060;2023-02-15T08:32:54;101063.22;;;-1.48;100.00
61757;BME280;57225;61.460;24.060;2023-02-15T08:35:39;101054.75;;;-1.47;100.00
61757;BME280;57225;61.460;24.060;2023-02-15T08:38:23;101055.75;;;-1.43;100.00
61757;BME280;57225;61.460;24.060;2023-02-15T08:41:32;101050.41;;;-1.34;100.00
61757;BME280;57225;61.460;24.060;2023-02-15T08:44:17;101058.81;;;-1.31;100.00
61757;BME280;57225;61.460;24.060;2023-02-15T08:47:01;101060.16;;;-1.28;100.00
61757;BME280;57225;61.460;24.060;2023-02-15T08:49:47;101054.16;;;-1.30;100.00
61757;BME280;57225;61.460;24.060;2023-02-15T08:52:31;101060.63;;;-1.26;100.00
61757;BME280;57225;61.460;24.060;2023-02-15T08:55:16;101060.59;;;-1.53;100.00
61757;BME280;57225;61.460;24.060;2023-02-15T08:58:00;101056.03;;;-1.44;100.00
61757;BME280;57225;61.460;24.060;2023-02-15T09:00:45;101058.91;;;-1.36;100.00
61757;BME280;57225;61.460;24.060;2023-02-15T09:03:29;101051.41;;;-1.30;100.00
61757;BME280;57225;61.460;24.060;2023-02-15T09:06:15;101052.03;;;-1.33;100.00
61757;BME280;57225;61.460;24.060;2023-02-15T09:08:59;101048.66;;;-1.44;100.00
61757;BME280;57225;61.460;24.060;2023-02-15T09:11:46;101047.09;;;-1.17;100.00
61757;BME280;57225;61.460;24.060;2023-02-15T09:14:31;101025.59;;;-1.24;100.00
61757;BME280;57225;61.460;24.060;2023-02-15T09:17:15;101049.22;;;-1.14;100.00
61757;BME280;57225;61.460;24.060;2023-02-15T09:19:59;101042.22;;;-1.07;100.00
61757;BME280;57225;61.460;24.060;2023-02-15T09:22:44;101036.16;;;-1.17;100.00
61757;BME280;57225;61.460;24.060;2023-02-15T09:25:28;101028.03;;;-1.23;100.00
61757;BME280;57225;61.460;24.060;2023-02-15T09:28:13;101026.53;;;-1.15;100.00
61757;BME280;57225;61.460;24.060;2023-02-15T09:31:01;101018.22;;;-1.24;100.00
61757;BME280;57225;61.460;24.060;2023-02-15T09:33:49;101022.38;;;-1.12;100.00
61757;BME280;57225;61.460;24.060;2023-02-15T09:36:38;101030.19;;;-0.92;100.00
61757;BME280;57225;61.460;24.060;2023-02-15T09:39:24;101021.09;;;-1.01;100.00
61757;BME280;57225;61.460;24.060;2023-02-15T09:45:45;101023.91;;;-0.93;100.00
61757;BME280;57225;61.460;24.060;2023-02-15T09:48:42;101019.75;;;-0.90;100.00
61757;BME280;57225;61.460;24.060;2023-02-15T09:51:42;101019.84;;;-0.82;100.00
61757;BME280;57225;61.460;24.060;2023-02-15T09:57:33;101016.50;;;-0.65;100.00
61757;BME280;57225;61.460;24.060;2023-02-15T10:00:33;101013.88;;;-0.84;100.00
61757;BME280;57225;61.460;24.060;2023-02-15T10:24:38;100988.16;;;-0.47;100.00
61757;BME280;57225;61.460;24.060;2023-02-15T10:27:28;100999.72;;;-0.50;100.00
61757;BME280;57225;61.460;24.060;2023-02-15T10:30:23;100995.75;;;-0.44;100.00
61757;BME280;57225;61.460;24.060;2023-02-15T10:39:28;100997.97;;;-0.32;100.00
61757;BME280;57225;61.460;24.060;2023-02-15T10:48:54;100990.06;;;-0.33;100.00
61757;BME280;57225;61.460;24.060;2023-02-15T11:07:04;100974.25;;;-0.36;100.00
61757;BME280;57225;61.460;24.060;2023-02-15T11:09:55;100974.13;;;-0.31;100.00
61757;BME280;57225;61.460;24.060;2023-02-15T11:12:44;100974.50;;;-0.24;100.00
61757;BME280;57225;61.460;24.060;2023-02-15T11:16:25;100972.63;;;-0.37;100.00
61757;BME280;57225;61.460;24.060;2023-02-15T11:19:05;100963.44;;;-0.19;100.00
61757;BME280;57225;61.460;24.060;2023-02-15T11:21:58;100961.38;;;-0.14;100.00
61757;BME280;57225;61.460;24.060;2023-02-15T11:24:44;100955.75;;;-0.31;100.00
61757;BME280;57225;61.460;24.060;2023-02-15T11:27:32;100959.44;;;-0.35;100.00
61757;BME280;57225;61.460;24.060;2023-02-15T11:30:21;100955.31;;;-0.47;100.00
61757;BME280;57225;61.460;24.060;2023-02-15T11:33:47;100952.44;;;-0.42;100.00
61757;BME280;57225;61.460;24.060;2023-02-15T11:36:36;100952.38;;;-0.50;100.00
61757;BME280;57225;61.460;24.060;2023-02-15T11:39:23;100953.81;;;-0.53;100.00
61757;BME280;57225;61.460;24.060;2023-02-15T11:42:18;100955.91;;;-0.50;100.00
61757;BME280;57225;61.460;24.060;2023-02-15T11:45:19;100953.38;;;-0.46;100.00
61757;BME280;57225;61.460;24.060;2023-02-15T11:48:11;100946.72;;;-0.54;100.00
61757;BME280;57225;61.460;24.060;2023-02-15T11:50:56;100948.72;;;-0.46;100.00
61757;BME280;57225;61.460;24.060;2023-02-15T11:53:41;100948.94;;;-0.56;100.00
61757;BME280;57225;61.460;24.060;2023-02-15T11:56:27;100954.63;;;-0.52;100.00
61757;BME280;57225;61.460;24.060;2023-02-15T11:59:17;100961.09;;;-0.48;100.00
61757;BME280;57225;61.460;24.060;2023-02-15T12:02:02;100947.81;;;-0.55;100.00
61757;BME280;57225;61.460;24.060;2023-02-15T12:04:59;100946.72;;;-0.54;100.00
61757;BME280;57225;61.460;24.060;2023-02-15T12:07:52;100948.69;;;-0.32;100.00
61757;BME280;57225;61.460;24.060;2023-02-15T12:11:27;100948.03;;;-0.29;100.00
61757;BME280;57225;61.460;24.060;2023-02-15T12:14:00;100948.47;;;-0.35;100.00
61757;BME280;57225;61.460;24.060;2023-02-15T12:16:48;100949.16;;;-0.30;100.00
61757;BME280;57225;61.460;24.060;2023-02-15T12:19:38;100952.28;;;-0.23;100.00
61757;BME280;57225;61.460;24.060;2023-02-15T12:22:32;100945.00;;;-0.27;100.00
61757;BME280;57225;61.460;24.060;2023-02-15T12:25:57;100948.34;;;-0.30;100.00
61757;BME280;57225;61.460;24.060;2023-02-15T12:28:44;100942.50;;;-0.37;100.00
61757;BME280;57225;61.460;24.060;2023-02-15T12:31:43;100943.72;;;-0.44;100.00
61757;BME280;57225;61.460;24.060;2023-02-15T12:34:32;100942.75;;;-0.48;100.00
61757;BME280;57225;61.460;24.060;2023-02-15T12:37:23;100935.34;;;-0.47;100.00
61757;BME280;57225;61.460;24.060;2023-02-15T12:40:23;100943.03;;;-0.49;100.00
61757;BME280;57225;61.460;24.060;2023-02-15T12:43:26;100938.19;;;-0.52;100.00
61757;BME280;57225;61.460;24.060;2023-02-15T12:46:25;100937.69;;;-0.54;100.00
61757;BME280;57225;61.460;24.060;2023-02-15T12:49:20;100932.41;;;-0.51;100.00
61757;BME280;57225;61.460;24.060;2023-02-15T12:52:23;100930.66;;;-0.47;100.00
61757;BME280;57225;61.460;24.060;2023-02-15T12:55:20;100929.09;;;-0.25;100.00
61757;BME280;57225;61.460;24.060;2023-02-15T12:58:19;100938.09;;;-0.25;100.00
61757;BME280;57225;61.460;24.060;2023-02-15T13:01:23;100924.72;;;-0.26;100.00
61757;BME280;57225;61.460;24.060;2023-02-15T13:07:02;100926.38;;;-0.17;100.00
61757;BME280;57225;61.460;24.060;2023-02-15T13:09:48;100925.56;;;-0.17;100.00
61757;BME280;57225;61.460;24.060;2023-02-15T13:12:35;100923.72;;;-0.08;100.00
61757;BME280;57225;61.460;24.060;2023-02-15T13:15:41;100923.94;;;-0.18;100.00
61757;BME280;57225;61.460;24.060;2023-02-15T13:18:35;100926.25;;;-0.12;100.00
61757;BME280;57225;61.460;24.060;2023-02-15T13:21:32;100924.53;;;-0.08;100.00
61757;BME280;57225;61.460;24.060;2023-02-15T13:27:21;100913.06;;;-0.10;100.00
61757;BME280;57225;61.460;24.060;2023-02-15T13:30:22;100921.59;;;-0.11;100.00
61757;BME280;57225;61.460;24.060;2023-02-15T13:33:32;100912.81;;;-0.22;100.00
61757;BME280;57225;61.460;24.060;2023-02-15T13:42:27;100920.66;;;-0.07;100.00
61757;BME280;57225;61.460;24.060;2023-02-15T13:48:38;100912.69;;;-0.17;100.00
61757;BME280;57225;61.460;24.060;2023-02-15T13:51:49;100921.13;;;-0.13;100.00
61757;BME280;57225;61.460;24.060;2023-02-15T14:01:28;100911.50;;;-0.24;100.00
61757;BME280;57225;61.460;24.060;2023-02-15T14:19:47;100899.19;;;-0.35;100.00
61757;BME280;57225;61.460;24.060;2023-02-15T14:22:47;100896.69;;;-0.23;100.00
61757;BME280;57225;61.460;24.060;2023-02-15T14:25:40;100894.09;;;-0.28;100.00
61757;BME280;57225;61.460;24.060;2023-02-15T14:28:43;100891.94;;;-0.31;100.00
61757;BME280;57225;61.460;24.060;2023-02-15T14:31:36;100889.94;;;-0.26;100.00
61757;BME280;57225;61.460;24.060;2023-02-15T14:34:42;100892.84;;;-0.45;100.00
61757;BME280;57225;61.460;24.060;2023-02-15T14:40:38;100880.66;;;-0.38;100.00
61757;BME280;57225;61.460;24.060;2023-02-15T14:49:23;100886.00;;;-0.33;100.00
61757;BME280;57225;61.460;24.060;2023-02-15T14:52:10;100890.72;;;-0.25;100.00
61757;BME280;57225;61.460;24.060;2023-02-15T14:54:56;100888.91;;;-0.30;100.00
61757;BME280;57225;61.460;24.060;2023-02-15T14:57:55;100879.34;;;-0.41;100.00
61757;BME280;57225;61.460;24.060;2023-02-15T15:00:41;100874.41;;;-0.53;100.00
61757;BME280;57225;61.460;24.060;2023-02-15T15:03:25;100884.84;;;-0.55;100.00
61757;BME280;57225;61.460;24.060;2023-02-15T15:06:24;100879.88;;;-0.53;100.00
61757;BME280;57225;61.460;24.060;2023-02-15T15:09:14;100884.34;;;-0.57;100.00
61757;BME280;57225;61.460;24.060;2023-02-15T15:14:58;100882.63;;;-0.53;100.00
61757;BME280;57225;61.460;24.060;2023-02-15T15:18:06;100877.88;;;-0.61;100.00
61757;BME280;57225;61.460;24.060;2023-02-15T15:20:51;100871.22;;;-0.68;100.00
61757;BME280;57225;61.460;24.060;2023-02-15T15:23:41;100877.03;;;-0.70;100.00
61757;BME280;57225;61.460;24.060;2023-02-15T15:26:29;100876.13;;;-0.57;100.00
61757;BME280;57225;61.460;24.060;2023-02-15T15:29:39;100880.25;;;-0.68;100.00
61757;BME280;57225;61.460;24.060;2023-02-15T15:32:26;100876.81;;;-0.73;100.00
61757;BME280;57225;61.460;24.060;2023-02-15T15:50:15;100870.16;;;-0.81;100.00
61757;BME280;57225;61.460;24.060;2023-02-15T15:53:02;100864.28;;;-0.88;100.00
61757;BME280;57225;61.460;24.060;2023-02-15T15:55:49;100867.13;;;-0.93;100.00
61757;BME280;57225;61.460;24.060;2023-02-15T15:58:34;100861.47;;;-0.97;100.00
61757;BME280;57225;61.460;24.060;2023-02-15T16:01:25;100862.91;;;-0.99;100.00
61757;BME280;57225;61.460;24.060;2023-02-15T16:04:12;100865.50;;;-0.94;100.00
61757;BME280;57225;61.460;24.060;2023-02-15T16:06:57;100856.31;;;-0.98;100.00
61757;BME280;57225;61.460;24.060;2023-02-15T16:12:46;100852.47;;;-0.97;100.00
61757;BME280;57225;61.460;24.060;2023-02-15T16:15:42;100858.97;;;-1.07;100.00
61757;BME280;57225;61.460;24.060;2023-02-15T16:18:28;100843.28;;;-1.01;100.00
61757;BME280;57225;61.460;24.060;2023-02-15T16:21:23;100847.09;;;-0.89;100.00
61757;BME280;57225;61.460;24.060;2023-02-15T16:24:20;100845.75;;;-0.91;100.00
61757;BME280;57225;61.460;24.060;2023-02-15T16:29:53;100838.56;;;-1.01;100.00
61757;BME280;57225;61.460;24.060;2023-02-15T16:32:38;100836.44;;;-0.90;100.00
61757;BME280;57225;61.460;24.060;2023-02-15T16:35:23;100836.44;;;-0.90;100.00
61757;BME280;57225;61.460;24.060;2023-02-15T16:38:10;100834.31;;;-0.93;100.00
61757;BME280;57225;61.460;24.060;2023-02-15T16:40:56;100825.53;;;-1.04;100.00
61757;BME280;57225;61.460;24.060;2023-02-15T16:43:44;100813.50;;;-1.16;100.00
61757;BME280;57225;61.460;24.060;2023-02-15T16:46:32;100824.22;;;-1.06;100.00
61757;BME280;57225;61.460;24.060;2023-02-15T16:49:25;100819.38;;;-1.09;100.00
61757;BME280;57225;61.460;24.060;2023-02-15T16:52:15;100824.91;;;-1.01;100.00
61757;BME280;57225;61.460;24.060;2023-02-15T16:55:04;100825.84;;;-1.05;100.00
61757;BME280;57225;61.460;24.060;2023-02-15T16:57:53;100814.88;;;-1.05;100.00
61757;BME280;57225;61.460;24.060;2023-02-15T17:00:39;100814.19;;;-1.11;100.00
61757;BME280;57225;61.460;24.060;2023-02-15T17:03:28;100815.63;;;-1.13;100.00
61757;BME280;57225;61.460;24.060;2023-02-15T17:06:24;100804.38;;;-1.12;100.00
61757;BME280;57225;61.460;24.060;2023-02-15T17:09:22;100803.69;;;-1.17;100.00
61757;BME280;57225;61.460;24.060;2023-02-15T17:12:08;100806.94;;;-1.15;100.00